createdAt,value
2023-03-07T00:02:31.124Z,21.70
2023-03-07T00:05:18.962Z,20.30
2023-03-07T00:08:06.027Z,17.20
2023-03-07T00:10:52.815Z,20.70
2023-03-07T00:13:40.029Z,20.20
2023-03-07T00:16:26.736Z,18.20
2023-03-07T00:19:13.938Z,18.20
2023-03-07T00:22:00.790Z,16.60
2023-03-07T00:24:48.276Z,14.30
2023-03-07T00:27:35.405Z,20.80
2023-03-07T00:30:22.424Z,21.00
2023-03-07T00:33:09.461Z,17.30
2023-03-07T00:36:01.938Z,16.60
2023-03-07T00:38:51.320Z,17.40
2023-03-07T00:41:37.869Z,17.70
2023-03-07T00:44:26.646Z,20.60
2023-03-07T00:47:13.811Z,21.10
2023-03-07T00:50:00.910Z,17.70
2023-03-07T00:52:47.793Z,19.90
2023-03-07T00:55:34.595Z,21.60
2023-03-07T00:58:21.471Z,15.30
2023-03-07T01:01:13.016Z,18.10
2023-03-07T01:04:00.785Z,12.50
2023-03-07T01:06:47.918Z,14.20
2023-03-07T01:09:34.627Z,20.50
2023-03-07T01:12:21.798Z,15.30
2023-03-07T01:15:10.144Z,15.70
2023-03-07T01:17:58.412Z,19.20
2023-03-07T01:20:45.730Z,15.30
2023-03-07T01:23:32.735Z,13.30
2023-03-07T01:26:29.808Z,15.50
2023-03-07T01:29:17.320Z,16.30
2023-03-07T01:32:05.232Z,18.60
2023-03-07T01:34:52.318Z,21.30
2023-03-07T01:37:39.491Z,16.90
2023-03-07T01:40:27.631Z,14.10
2023-03-07T01:43:27.695Z,16.60
2023-03-07T01:46:28.471Z,18.50
2023-03-07T01:49:40.344Z,19.50
2023-03-07T01:52:33.891Z,19.70
2023-03-07T01:55:32.747Z,17.10
2023-03-07T01:58:30.627Z,17.30
2023-03-07T02:01:18.274Z,19.90
2023-03-07T02:04:20.739Z,20.30
2023-03-07T02:07:10.469Z,18.00
2023-03-07T02:09:58.263Z,18.70
2023-03-07T02:12:45.056Z,21.80
2023-03-07T02:15:34.277Z,20.60
2023-03-07T02:18:26.838Z,21.70
2023-03-07T02:21:43.819Z,14.60
2023-03-07T02:25:23.958Z,19.20
2023-03-07T02:28:14.888Z,15.80
2023-03-07T02:31:05.604Z,15.30
2023-03-07T02:33:54.026Z,16.10
2023-03-07T02:36:41.467Z,17.70
2023-03-07T02:39:38.237Z,20.20
2023-03-07T02:42:31.911Z,19.60
2023-03-07T02:45:27.430Z,19.60
2023-03-07T02:48:14.564Z,20.20
2023-03-07T02:51:01.726Z,16.90
2023-03-07T02:53:48.922Z,19.50
2023-03-07T02:56:36.408Z,19.90
2023-03-07T02:59:23.404Z,20.90
2023-03-07T03:02:10.361Z,18.30
2023-03-07T03:04:56.943Z,21.30
2023-03-07T03:07:43.865Z,19.40
2023-03-07T03:10:30.840Z,20.50
2023-03-07T03:13:19.598Z,22.80
2023-03-07T03:16:07.386Z,22.60
2023-03-07T03:18:54.199Z,19.40
2023-03-07T03:21:41.780Z,22.50
2023-03-07T03:24:28.369Z,21.60
2023-03-07T03:27:15.321Z,17.00
2023-03-07T03:30:09.197Z,19.20
2023-03-07T03:32:56.404Z,17.80
2023-03-07T03:35:43.346Z,14.00
2023-03-07T03:38:30.423Z,15.50
2023-03-07T03:41:17.620Z,16.20
2023-03-07T03:44:05.492Z,19.30
2023-03-07T03:46:52.853Z,15.80
2023-03-07T03:49:41.080Z,22.30
2023-03-07T03:52:29.253Z,16.00
2023-03-07T03:55:16.528Z,21.50
2023-03-07T03:58:04.042Z,17.70
2023-03-07T04:00:51.287Z,18.90
2023-03-07T04:03:43.949Z,20.70
2023-03-07T04:06:34.127Z,14.10
2023-03-07T04:09:21.247Z,14.70
2023-03-07T04:12:08.662Z,18.70
2023-03-07T04:14:55.985Z,19.20
2023-03-07T04:17:43.456Z,18.50
2023-03-07T04:20:30.210Z,18.90
2023-03-07T04:23:19.448Z,20.00
2023-03-07T04:26:09.282Z,16.20
2023-03-07T04:28:56.153Z,13.50
2023-03-07T04:31:47.604Z,20.40
2023-03-07T04:34:34.548Z,19.60
2023-03-07T04:37:21.257Z,18.40
2023-03-07T04:40:09.800Z,20.50
2023-03-07T04:42:56.715Z,18.70
2023-03-07T04:45:43.317Z,17.00
2023-03-07T04:48:30.473Z,23.80
2023-03-07T04:51:17.708Z,14.20
2023-03-07T04:54:04.818Z,16.10
2023-03-07T04:56:52.392Z,19.80
2023-03-07T04:59:39.545Z,19.30
2023-03-07T05:02:26.688Z,16.20
2023-03-07T05:05:13.886Z,16.70
2023-03-07T05:08:03.772Z,27.30
2023-03-07T05:10:51.237Z,22.90
2023-03-07T05:13:38.593Z,22.30
2023-03-07T05:16:25.756Z,17.40
2023-03-07T05:19:13.267Z,18.30
2023-03-07T05:22:00.667Z,23.20
2023-03-07T05:24:47.685Z,21.40
2023-03-07T05:27:34.958Z,19.90
2023-03-07T05:30:23.073Z,26.10
2023-03-07T05:33:10.392Z,27.80
2023-03-07T05:36:03.105Z,22.70
2023-03-07T05:38:53.108Z,25.00
2023-03-07T05:41:40.048Z,24.00
2023-03-07T05:44:27.460Z,20.00
2023-03-07T05:47:15.800Z,18.80
2023-03-07T05:50:03.104Z,23.90
2023-03-07T05:52:50.213Z,24.60
2023-03-07T05:55:36.959Z,26.20
2023-03-07T05:58:24.065Z,21.90
2023-03-07T06:01:10.962Z,21.00
2023-03-07T06:03:57.734Z,22.80
2023-03-07T06:06:44.756Z,24.70
2023-03-07T06:09:31.739Z,23.80
2023-03-07T06:12:18.622Z,22.50
2023-03-07T06:15:08.248Z,23.90
2023-03-07T06:17:55.527Z,20.20
2023-03-07T06:20:43.519Z,19.40
2023-03-07T06:23:33.860Z,19.90
2023-03-07T06:26:21.102Z,22.20
2023-03-07T06:29:10.057Z,20.40
2023-03-07T06:31:57.054Z,18.30
2023-03-07T06:34:44.002Z,21.60
2023-03-07T06:37:31.045Z,23.70
2023-03-07T06:40:18.785Z,21.90
2023-03-07T06:43:06.120Z,21.10
2023-03-07T06:45:53.875Z,16.30
2023-03-07T06:48:41.632Z,16.60
2023-03-07T06:51:31.350Z,17.60
2023-03-07T06:54:18.534Z,18.00
2023-03-07T06:57:05.349Z,16.10
2023-03-07T06:59:52.521Z,16.00
2023-03-07T07:02:39.598Z,16.10
2023-03-07T07:05:26.435Z,15.50
2023-03-07T07:08:14.079Z,13.30
2023-03-07T07:11:01.234Z,13.80
2023-03-07T07:13:49.973Z,11.70
2023-03-07T07:16:39.556Z,14.00
2023-03-07T07:19:26.823Z,13.70
2023-03-07T07:22:17.393Z,12.60
2023-03-07T07:25:05.400Z,14.70
2023-03-07T07:27:52.235Z,14.60
2023-03-07T07:30:40.063Z,13.40
2023-03-07T07:33:27.230Z,13.40
2023-03-07T07:36:13.931Z,14.70
2023-03-07T07:39:05.852Z,14.50
2023-03-07T07:41:52.996Z,15.60
2023-03-07T07:44:40.707Z,14.20
2023-03-07T07:47:30.017Z,14.90
2023-03-07T07:50:19.898Z,15.90
2023-03-07T07:53:06.765Z,15.10
2023-03-07T07:55:54.247Z,14.40
2023-03-07T07:58:41.421Z,13.90
2023-03-07T08:01:28.654Z,16.00
2023-03-07T08:04:15.373Z,15.60
2023-03-07T08:07:02.171Z,14.80
2023-03-07T08:09:49.611Z,13.90
2023-03-07T08:12:37.136Z,13.60
2023-03-07T08:15:24.766Z,13.40
2023-03-07T08:18:11.841Z,14.40
2023-03-07T08:20:59.518Z,15.10
2023-03-07T08:23:46.554Z,13.10
2023-03-07T08:26:33.110Z,14.10
2023-03-07T08:29:19.481Z,12.20
2023-03-07T08:32:06.563Z,16.50
2023-03-07T08:34:53.340Z,14.70
2023-03-07T08:37:40.385Z,16.30
2023-03-07T08:40:29.495Z,14.90
2023-03-07T08:43:16.486Z,15.00
2023-03-07T08:46:04.041Z,16.60
2023-03-07T08:48:51.277Z,15.00
2023-03-07T08:51:38.084Z,15.80
2023-03-07T08:54:24.752Z,19.20
2023-03-07T08:57:11.407Z,19.20
2023-03-07T08:59:57.833Z,16.80
2023-03-07T09:02:44.503Z,24.30
2023-03-07T09:05:31.990Z,18.10
2023-03-07T09:08:18.809Z,19.60
2023-03-07T09:11:05.557Z,20.50
2023-03-07T09:13:53.360Z,20.50
2023-03-07T09:16:40.373Z,21.50
2023-03-07T09:19:27.613Z,18.70
2023-03-07T09:22:14.572Z,23.40
2023-03-07T09:25:01.327Z,25.60
2023-03-07T09:27:50.414Z,25.80
2023-03-07T09:30:38.515Z,24.90
2023-03-07T09:33:25.336Z,25.40
2023-03-07T09:36:12.900Z,25.60
2023-03-07T09:39:00.181Z,24.80
2023-03-07T09:42:28.300Z,27.60
2023-03-07T09:45:18.098Z,28.20
2023-03-07T09:48:49.026Z,22.70
2023-03-07T09:51:41.625Z,29.40
2023-03-07T09:54:59.981Z,27.80
2023-03-07T09:57:55.232Z,29.50
2023-03-07T10:00:45.185Z,27.00
2023-03-07T10:03:53.307Z,32.30
2023-03-07T10:06:43.095Z,31.60
2023-03-07T10:09:30.240Z,27.40
2023-03-07T10:13:11.406Z,28.90
2023-03-07T10:16:15.234Z,29.50
2023-03-07T10:19:09.029Z,34.90
2023-03-07T10:22:11.677Z,29.60
2023-03-07T10:25:29.353Z,36.80
2023-03-07T10:28:27.678Z,33.50
2023-03-07T10:31:17.785Z,31.80
2023-03-07T10:34:27.497Z,34.10
2023-03-07T10:37:21.324Z,32.40
2023-03-07T10:40:30.069Z,30.20
2023-03-07T10:43:29.013Z,30.20
2023-03-07T10:46:30.529Z,32.20
2023-03-07T10:49:32.604Z,32.10
2023-03-07T10:52:28.596Z,32.40
2023-03-07T10:55:37.010Z,34.50
2023-03-07T10:58:27.854Z,34.50
2023-03-07T11:01:21.434Z,28.10
2023-03-07T11:04:42.224Z,27.70
2023-03-07T11:07:35.805Z,30.90
2023-03-07T11:10:41.289Z,28.50
2023-03-07T11:13:29.226Z,32.20
2023-03-07T11:16:21.154Z,27.30
2023-03-07T11:19:31.618Z,27.40
2023-03-07T11:22:22.670Z,33.60
2023-03-07T11:25:12.344Z,30.80
2023-03-07T11:27:59.159Z,32.30
2023-03-07T11:30:59.926Z,28.50
2023-03-07T11:34:15.063Z,25.50
2023-03-07T11:37:09.277Z,29.10
2023-03-07T11:40:23.184Z,26.10
2023-03-07T11:43:21.237Z,26.60
2023-03-07T11:47:01.146Z,30.00
2023-03-07T11:50:41.398Z,35.50
2023-03-07T11:54:04.850Z,29.20
2023-03-07T11:56:59.376Z,34.20
2023-03-07T12:00:20.157Z,31.20
2023-03-07T12:03:15.917Z,29.90
2023-03-07T12:06:26.050Z,30.80
2023-03-07T12:09:57.220Z,29.80
2023-03-07T12:13:10.931Z,31.70
2023-03-07T12:16:53.431Z,27.30
2023-03-07T12:20:07.748Z,27.70
2023-03-07T12:23:07.186Z,28.90
2023-03-07T12:25:59.189Z,28.10
2023-03-07T12:28:52.749Z,31.30
2023-03-07T12:31:47.243Z,24.10
2023-03-07T12:35:04.647Z,25.60
2023-03-07T12:38:17.293Z,28.60
2023-03-07T12:41:37.411Z,31.90
2023-03-07T12:45:17.949Z,30.10
2023-03-07T12:48:24.052Z,28.10
2023-03-07T12:51:38.793Z,28.00
2023-03-07T12:54:34.133Z,22.70
2023-03-07T12:57:34.198Z,24.20
2023-03-07T13:00:22.813Z,25.30
2023-03-07T13:03:23.602Z,27.60
2023-03-07T13:06:18.081Z,24.00
2023-03-07T13:09:05.614Z,23.90
2023-03-07T13:12:22.037Z,18.60
2023-03-07T13:15:17.450Z,22.90
2023-03-07T13:18:25.286Z,20.30
2023-03-07T13:21:33.371Z,23.20
2023-03-07T13:24:36.958Z,18.60
2023-03-07T13:27:30.345Z,18.50
2023-03-07T13:30:21.106Z,18.20
2023-03-07T13:33:28.279Z,20.60
2023-03-07T13:36:38.032Z,16.80
2023-03-07T13:39:37.421Z,16.50
2023-03-07T13:42:48.088Z,19.70
2023-03-07T13:45:37.526Z,18.10
2023-03-07T13:48:27.462Z,18.80
2023-03-07T13:51:14.033Z,16.50
2023-03-07T13:54:10.898Z,19.30
2023-03-07T13:56:57.879Z,19.40
2023-03-07T13:59:49.953Z,17.70
2023-03-07T14:02:39.339Z,17.00
2023-03-07T14:05:26.354Z,15.40
2023-03-07T14:08:14.837Z,19.80
2023-03-07T14:11:02.531Z,18.40
2023-03-07T14:14:30.117Z,16.60
2023-03-07T14:17:41.145Z,16.60
2023-03-07T14:21:08.961Z,15.70
2023-03-07T14:24:04.132Z,21.70
2023-03-07T14:26:57.445Z,15.60
2023-03-07T14:29:53.971Z,15.40
2023-03-07T14:32:40.904Z,23.60
2023-03-07T14:35:39.626Z,15.90
2023-03-07T14:38:27.542Z,16.60
2023-03-07T14:41:37.348Z,17.70
2023-03-07T14:44:48.559Z,17.80
2023-03-07T14:48:07.831Z,16.90
2023-03-07T14:50:55.485Z,20.10
2023-03-07T14:53:43.142Z,18.30
2023-03-07T14:56:34.156Z,15.40
2023-03-07T14:59:28.547Z,15.90
2023-03-07T15:02:18.085Z,16.20
2023-03-07T15:05:16.064Z,16.50
2023-03-07T15:08:03.171Z,17.80
2023-03-07T15:11:13.246Z,13.70
2023-03-07T15:14:34.077Z,15.80
2023-03-07T15:17:43.304Z,16.70
2023-03-07T15:20:31.061Z,14.60
2023-03-07T15:23:23.594Z,14.70
2023-03-07T15:26:20.477Z,16.70
2023-03-07T15:29:09.062Z,12.50
2023-03-07T15:32:08.193Z,17.90
2023-03-07T15:35:10.315Z,16.70
2023-03-07T15:38:21.698Z,13.50
2023-03-07T15:41:35.833Z,13.70
2023-03-07T15:44:22.880Z,12.90
2023-03-07T15:47:16.378Z,14.80
2023-03-07T15:50:06.480Z,15.20
2023-03-07T15:53:16.978Z,13.10
2023-03-07T15:56:25.882Z,12.40
2023-03-07T15:59:30.132Z,20.10
2023-03-07T16:02:37.402Z,18.30
2023-03-07T16:05:24.318Z,16.00
2023-03-07T16:08:15.904Z,16.50
2023-03-07T16:11:06.993Z,16.90
2023-03-07T16:13:53.938Z,15.40
